createdAt,value
2022-10-22T00:01:00.831Z,7.75
2022-10-22T00:03:28.654Z,7.94
2022-10-22T00:05:56.598Z,7.91
2022-10-22T00:08:24.488Z,7.83
2022-10-22T00:10:52.878Z,7.64
2022-10-22T00:13:22.226Z,7.74
2022-10-22T00:15:50.079Z,7.78
2022-10-22T00:18:17.909Z,7.80
2022-10-22T00:20:45.743Z,7.83
2022-10-22T00:23:13.642Z,7.86
2022-10-22T00:25:41.475Z,7.82
2022-10-22T00:28:09.324Z,7.91
2022-10-22T00:30:38.607Z,7.41
2022-10-22T00:33:06.409Z,7.67
2022-10-22T00:35:34.556Z,7.69
2022-10-22T00:38:02.507Z,7.82
2022-10-22T00:40:30.393Z,7.80
2022-10-22T00:42:58.276Z,7.96
2022-10-22T00:45:27.058Z,7.85
2022-10-22T00:48:06.154Z,8.00
2022-10-22T00:50:36.892Z,7.97
2022-10-22T00:53:09.623Z,8.05
2022-10-22T00:55:38.369Z,8.03
2022-10-22T00:58:06.287Z,8.03
2022-10-22T01:00:34.266Z,7.94
2022-10-22T01:03:03.726Z,7.93
2022-10-22T01:05:40.476Z,7.69
2022-10-22T01:08:15.858Z,7.69
2022-10-22T01:10:58.384Z,7.72
2022-10-22T01:13:38.006Z,7.84
2022-10-22T01:16:12.222Z,7.87
2022-10-22T01:18:52.219Z,7.92
2022-10-22T01:21:27.856Z,7.98
2022-10-22T01:24:20.737Z,7.86
2022-10-22T01:27:01.867Z,7.67
2022-10-22T01:29:35.487Z,7.43
2022-10-22T01:32:08.528Z,7.50
2022-10-22T01:34:40.255Z,7.49
2022-10-22T01:37:09.315Z,7.45
2022-10-22T01:39:39.610Z,7.40
2022-10-22T01:42:07.821Z,7.23
2022-10-22T01:44:38.126Z,7.21
2022-10-22T01:47:22.371Z,6.98
2022-10-22T01:50:03.259Z,7.22
2022-10-22T01:52:45.958Z,7.22
2022-10-22T01:55:23.621Z,7.19
2022-10-22T01:58:01.867Z,7.06
2022-10-22T02:00:31.198Z,6.98
2022-10-22T02:03:05.133Z,7.04
2022-10-22T02:05:37.887Z,7.05
2022-10-22T02:08:10.109Z,6.99
2022-10-22T02:10:39.599Z,6.79
2022-10-22T02:13:11.048Z,7.07
2022-10-22T02:15:41.219Z,7.14
2022-10-22T02:18:10.970Z,7.06
2022-10-22T02:20:42.466Z,7.05
2022-10-22T02:23:11.408Z,7.12
2022-10-22T02:25:42.830Z,7.18
2022-10-22T02:28:18.000Z,7.10
2022-10-22T02:30:53.996Z,7.00
2022-10-22T02:33:25.643Z,7.06
2022-10-22T02:35:54.855Z,7.09
2022-10-22T02:38:25.111Z,7.04
2022-10-22T02:40:53.519Z,6.83
2022-10-22T02:43:21.385Z,6.61
2022-10-22T02:45:50.636Z,6.96
2022-10-22T02:48:18.688Z,6.99
2022-10-22T02:50:46.620Z,7.06
2022-10-22T02:53:14.496Z,7.12
2022-10-22T02:55:42.393Z,7.04
2022-10-22T02:58:11.053Z,7.18
2022-10-22T03:00:38.930Z,7.13
2022-10-22T03:03:08.154Z,7.13
2022-10-22T03:05:37.504Z,7.17
2022-10-22T03:08:05.689Z,7.13
2022-10-22T03:10:33.533Z,7.08
2022-10-22T03:13:01.768Z,6.60
2022-10-22T03:15:29.652Z,7.11
2022-10-22T03:17:57.469Z,7.04
2022-10-22T03:20:26.758Z,6.89
2022-10-22T03:22:54.700Z,6.90
2022-10-22T03:25:25.299Z,6.74
2022-10-22T03:27:54.737Z,6.69
2022-10-22T03:30:23.156Z,6.69
2022-10-22T03:32:50.990Z,6.79
2022-10-22T03:35:18.867Z,6.50
2022-10-22T03:37:48.272Z,6.66
2022-10-22T03:40:16.552Z,6.56
2022-10-22T03:42:44.795Z,6.52
2022-10-22T03:45:13.306Z,6.47
2022-10-22T03:47:41.407Z,6.44
2022-10-22T03:50:10.675Z,6.46
2022-10-22T03:52:40.162Z,6.46
2022-10-22T03:55:10.468Z,6.34
2022-10-22T03:57:38.609Z,6.46
2022-10-22T04:00:08.177Z,6.50
2022-10-22T04:02:36.056Z,6.60
2022-10-22T04:05:04.011Z,6.57
2022-10-22T04:07:31.903Z,6.63
2022-10-22T04:09:59.796Z,6.42
2022-10-22T04:12:29.051Z,6.31
2022-10-22T04:14:56.872Z,6.35
2022-10-22T04:17:24.897Z,6.43
2022-10-22T04:19:52.703Z,6.47
2022-10-22T04:22:20.544Z,6.38
2022-10-22T04:24:48.424Z,6.33
2022-10-22T04:27:16.269Z,6.48
2022-10-22T04:29:45.524Z,6.47
2022-10-22T04:32:13.348Z,6.51
2022-10-22T04:34:41.177Z,6.44
2022-10-22T04:37:09.025Z,6.37
2022-10-22T04:39:36.863Z,6.46
2022-10-22T04:42:05.056Z,6.49
2022-10-22T04:44:33.092Z,6.48
2022-10-22T04:47:02.289Z,6.57
2022-10-22T04:49:30.144Z,6.59
2022-10-22T04:51:58.007Z,6.60
2022-10-22T04:54:29.020Z,6.54
2022-10-22T04:57:00.048Z,6.62
2022-10-22T04:59:27.939Z,6.68
2022-10-22T05:01:55.780Z,6.72
2022-10-22T05:04:25.017Z,6.68
2022-10-22T05:06:52.875Z,6.74
2022-10-22T05:09:21.780Z,6.86
2022-10-22T05:11:51.558Z,6.67
2022-10-22T05:14:21.299Z,7.03
2022-10-22T05:16:49.560Z,7.05
2022-10-22T05:19:19.730Z,7.14
2022-10-22T05:21:49.000Z,7.27
2022-10-22T05:24:16.942Z,7.18
2022-10-22T05:26:44.783Z,7.29
2022-10-22T05:29:12.728Z,7.23
2022-10-22T05:31:41.141Z,7.26
2022-10-22T05:34:09.079Z,7.32
2022-10-22T05:36:37.305Z,7.40
2022-10-22T05:39:07.392Z,7.41
2022-10-22T05:41:36.755Z,7.29
2022-10-22T05:44:05.822Z,7.34
2022-10-22T05:46:36.324Z,7.35
2022-10-22T05:49:06.696Z,7.39
2022-10-22T05:51:37.380Z,7.48
2022-10-22T05:54:11.087Z,7.48
2022-10-22T05:56:39.696Z,7.82
2022-10-22T05:59:07.534Z,7.78
2022-10-22T06:01:36.381Z,7.72
2022-10-22T06:04:06.160Z,7.63
2022-10-22T06:06:36.575Z,7.61
2022-10-22T06:09:09.009Z,8.12
2022-10-22T06:11:36.946Z,9.03
2022-10-22T06:14:05.569Z,9.13
2022-10-22T06:16:33.716Z,9.53
2022-10-22T06:19:02.983Z,9.75
2022-10-22T06:21:31.611Z,10.30
2022-10-22T06:24:00.782Z,10.85
2022-10-22T06:26:30.426Z,11.02
2022-10-22T06:28:59.095Z,11.28
2022-10-22T06:31:28.351Z,11.38
2022-10-22T06:33:58.014Z,11.28
2022-10-22T06:36:26.231Z,11.75
2022-10-22T06:38:54.812Z,12.10
2022-10-22T06:41:27.054Z,12.18
2022-10-22T06:44:01.195Z,12.10
2022-10-22T06:46:32.371Z,12.46
2022-10-22T06:49:04.067Z,12.46
2022-10-22T06:51:33.195Z,12.18
2022-10-22T06:54:02.917Z,12.24
2022-10-22T06:56:32.835Z,12.32
2022-10-22T06:59:04.408Z,12.68
2022-10-22T07:01:35.690Z,12.80
2022-10-22T07:04:05.823Z,13.06
2022-10-22T07:06:36.518Z,13.49
2022-10-22T07:09:07.220Z,13.13
2022-10-22T07:11:42.448Z,12.95
2022-10-22T07:14:15.670Z,12.91
2022-10-22T07:16:47.323Z,13.30
2022-10-22T07:19:17.126Z,13.35
2022-10-22T07:21:46.468Z,14.04
2022-10-22T07:24:17.821Z,14.12
2022-10-22T07:26:47.730Z,14.09
2022-10-22T07:29:19.338Z,14.54
2022-10-22T07:31:48.851Z,14.66
2022-10-22T07:34:17.041Z,14.74
2022-10-22T07:36:45.047Z,14.95
2022-10-22T07:39:13.048Z,15.33
2022-10-22T07:41:40.931Z,15.71
2022-10-22T07:44:08.800Z,15.42
2022-10-22T07:46:38.111Z,15.49
2022-10-22T07:49:05.989Z,15.54
2022-10-22T07:51:33.875Z,15.73
2022-10-22T07:54:01.744Z,15.48
2022-10-22T07:56:29.591Z,15.30
2022-10-22T07:58:57.531Z,15.67
2022-10-22T08:01:25.471Z,16.29
2022-10-22T08:03:54.796Z,16.52
2022-10-22T08:06:23.073Z,16.66
2022-10-22T08:08:51.003Z,17.14
2022-10-22T08:11:18.935Z,17.22
2022-10-22T08:13:46.791Z,16.65
2022-10-22T08:16:16.044Z,16.60
2022-10-22T08:18:44.196Z,16.90
2022-10-22T08:21:14.112Z,17.43
2022-10-22T08:23:42.029Z,17.39
2022-10-22T08:26:09.972Z,17.24
2022-10-22T08:28:37.997Z,17.13
2022-10-22T08:31:06.314Z,16.92
2022-10-22T08:33:34.202Z,17.17
2022-10-22T08:36:02.117Z,17.18
2022-10-22T08:38:31.682Z,17.23
2022-10-22T08:41:08.919Z,17.44
2022-10-22T08:44:10.872Z,17.67
2022-10-22T08:46:55.373Z,17.48
2022-10-22T08:49:27.209Z,17.87
2022-10-22T08:51:57.135Z,17.97
2022-10-22T08:54:33.344Z,17.83
2022-10-22T08:57:19.288Z,17.97
2022-10-22T08:59:49.186Z,18.57
2022-10-22T09:02:29.727Z,18.66
2022-10-22T09:05:11.498Z,19.05
2022-10-22T09:07:49.984Z,19.05
2022-10-22T09:10:20.556Z,18.98
2022-10-22T09:12:49.199Z,19.00
2022-10-22T09:15:18.724Z,18.88
2022-10-22T09:18:07.125Z,18.81
2022-10-22T09:20:43.445Z,18.94
2022-10-22T09:23:25.707Z,19.16
2022-10-22T09:25:55.487Z,19.44
2022-10-22T09:28:23.401Z,19.78
2022-10-22T09:30:51.453Z,19.64
2022-10-22T09:33:24.737Z,19.74
2022-10-22T09:35:54.860Z,19.28
2022-10-22T09:38:26.781Z,19.61
2022-10-22T09:40:58.366Z,19.86
2022-10-22T09:43:26.567Z,19.65
2022-10-22T09:45:58.634Z,19.47
2022-10-22T09:48:32.193Z,19.82
2022-10-22T09:51:05.552Z,20.44
2022-10-22T09:53:38.972Z,19.72
2022-10-22T09:56:17.309Z,19.52
2022-10-22T09:58:49.294Z,19.76
2022-10-22T10:01:20.969Z,19.44
2022-10-22T10:03:50.255Z,19.17
2022-10-22T10:06:20.888Z,19.58
2022-10-22T10:08:49.461Z,19.70
2022-10-22T10:11:29.677Z,19.70
2022-10-22T10:14:09.031Z,19.92
2022-10-22T10:16:57.830Z,20.13
2022-10-22T10:19:44.433Z,19.90
2022-10-22T10:22:25.334Z,19.43
2022-10-22T10:25:21.122Z,20.11
2022-10-22T10:27:57.913Z,20.11
2022-10-22T10:30:26.152Z,20.12
2022-10-22T10:33:11.584Z,20.34
2022-10-22T10:35:50.182Z,20.35
2022-10-22T10:38:39.512Z,19.86
2022-10-22T10:41:19.919Z,20.51
2022-10-22T10:44:04.688Z,20.56
2022-10-22T10:46:39.404Z,20.76
2022-10-22T10:49:11.157Z,20.53
2022-10-22T10:51:47.475Z,20.32
2022-10-22T10:54:27.477Z,20.58
2022-10-22T10:56:59.215Z,21.12
2022-10-22T10:59:43.949Z,21.36
2022-10-22T11:02:37.949Z,21.05
2022-10-22T11:05:22.358Z,21.06
2022-10-22T11:07:56.576Z,21.42
2022-10-22T11:10:30.395Z,20.81
2022-10-22T11:13:05.680Z,20.83
2022-10-22T11:15:38.123Z,20.99
2022-10-22T11:18:15.901Z,21.52
2022-10-22T11:21:04.565Z,21.64
2022-10-22T11:23:39.863Z,21.51
2022-10-22T11:26:14.187Z,21.14
2022-10-22T11:28:46.650Z,21.45
2022-10-22T11:31:18.211Z,21.39
2022-10-22T11:33:57.331Z,21.39
2022-10-22T11:36:34.358Z,21.71
2022-10-22T11:39:05.115Z,21.69
2022-10-22T11:41:35.345Z,21.99
2022-10-22T11:44:12.657Z,22.00
2022-10-22T11:46:46.593Z,21.84
2022-10-22T11:49:23.544Z,22.28
2022-10-22T11:51:52.499Z,22.11
2022-10-22T11:54:33.041Z,22.35
2022-10-22T11:57:21.221Z,22.52
2022-10-22T11:59:52.227Z,21.75
2022-10-22T12:02:41.149Z,22.16
2022-10-22T12:05:37.512Z,22.28
2022-10-22T12:08:17.707Z,22.22
2022-10-22T12:10:59.598Z,22.15
2022-10-22T12:13:29.741Z,22.04
2022-10-22T12:16:00.136Z,21.92
2022-10-22T12:18:36.401Z,22.58
2022-10-22T12:21:04.691Z,22.35
2022-10-22T12:23:35.568Z,22.65
2022-10-22T12:26:05.509Z,22.70
2022-10-22T12:28:40.791Z,22.03
2022-10-22T12:31:16.688Z,22.23
2022-10-22T12:33:45.922Z,22.43
2022-10-22T12:36:18.280Z,21.93
2022-10-22T12:38:48.241Z,22.37
2022-10-22T12:41:16.192Z,22.40
2022-10-22T12:43:44.028Z,22.27
2022-10-22T12:46:16.311Z,22.41
2022-10-22T12:48:47.255Z,22.44
2022-10-22T12:51:19.530Z,22.49
2022-10-22T12:53:49.214Z,22.66
2022-10-22T12:56:22.149Z,22.49
2022-10-22T12:58:56.366Z,22.56
2022-10-22T13:01:27.882Z,22.48
2022-10-22T13:04:18.570Z,22.80
2022-10-22T13:06:49.162Z,22.67
2022-10-22T13:09:23.809Z,22.63
2022-10-22T13:11:58.226Z,22.41
2022-10-22T13:14:32.433Z,22.43
2022-10-22T13:17:08.505Z,22.84
2022-10-22T13:19:50.080Z,22.70
2022-10-22T13:22:31.057Z,22.61
2022-10-22T13:25:00.341Z,22.32
2022-10-22T13:27:29.359Z,22.34
2022-10-22T13:29:59.993Z,22.08
2022-10-22T13:32:31.625Z,22.24
2022-10-22T13:35:02.424Z,22.13
2022-10-22T13:37:34.035Z,21.70
2022-10-22T13:40:01.877Z,21.77
2022-10-22T13:42:29.713Z,21.80
2022-10-22T13:44:57.575Z,21.74
2022-10-22T13:47:27.762Z,21.63
2022-10-22T13:49:58.588Z,21.41
2022-10-22T13:52:35.359Z,21.48
2022-10-22T13:55:03.346Z,21.41
2022-10-22T13:57:31.183Z,21.22
2022-10-22T13:59:59.056Z,21.12
2022-10-22T14:02:28.191Z,21.14
2022-10-22T14:04:56.660Z,21.16
2022-10-22T14:07:24.501Z,21.08
2022-10-22T14:09:53.712Z,21.09
2022-10-22T14:12:21.576Z,21.10
2022-10-22T14:14:49.453Z,20.89
2022-10-22T14:17:19.186Z,20.82
2022-10-22T14:19:49.457Z,20.76
2022-10-22T14:22:18.487Z,20.72
2022-10-22T14:24:46.820Z,20.68
2022-10-22T14:27:16.787Z,20.65
2022-10-22T14:29:44.684Z,20.62
2022-10-22T14:32:15.281Z,20.52
2022-10-22T14:34:43.149Z,20.40
2022-10-22T14:37:18.734Z,20.35
2022-10-22T14:39:51.921Z,20.39
2022-10-22T14:42:21.354Z,20.32
2022-10-22T14:44:49.203Z,20.23
2022-10-22T14:47:17.051Z,20.15
2022-10-22T14:49:44.897Z,20.11
2022-10-22T14:52:14.839Z,20.10
2022-10-22T14:54:42.984Z,20.11
2022-10-22T14:57:11.437Z,20.14
2022-10-22T14:59:40.788Z,20.16
2022-10-22T15:02:12.319Z,20.10
2022-10-22T15:04:40.272Z,20.07
2022-10-22T15:07:08.197Z,19.97
2022-10-22T15:09:36.016Z,19.86
2022-10-22T15:12:03.955Z,19.80
2022-10-22T15:14:31.789Z,19.72
2022-10-22T15:17:01.193Z,19.72
2022-10-22T15:19:30.442Z,19.65
2022-10-22T15:21:58.283Z,19.67
2022-10-22T15:24:26.139Z,19.65
2022-10-22T15:26:54.083Z,19.54
2022-10-22T15:29:21.958Z,18.88
2022-10-22T15:31:51.571Z,19.40
2022-10-22T15:34:22.793Z,19.34
2022-10-22T15:36:50.717Z,19.27
2022-10-22T15:39:18.808Z,19.11
2022-10-22T15:41:46.946Z,19.11
2022-10-22T15:44:17.276Z,19.08
2022-10-22T15:46:45.143Z,19.02
2022-10-22T15:49:13.729Z,18.89
2022-10-22T15:51:42.922Z,18.81
2022-10-22T15:54:14.818Z,18.50
2022-10-22T15:56:43.504Z,18.50
2022-10-22T15:59:12.831Z,18.33
2022-10-22T16:01:41.255Z,18.24
2022-10-22T16:04:09.149Z,18.19
2022-10-22T16:06:40.099Z,18.14
2022-10-22T16:09:11.689Z,18.12
2022-10-22T16:11:41.713Z,17.89
2022-10-22T16:14:11.612Z,17.84
2022-10-22T16:16:43.416Z,17.70
2022-10-22T16:19:12.084Z,17.63
2022-10-22T16:21:40.091Z,17.53
2022-10-22T16:24:10.811Z,17.28
2022-10-22T16:26:38.638Z,17.17
2022-10-22T16:29:07.244Z,17.12
2022-10-22T16:31:35.565Z,16.96
2022-10-22T16:34:03.406Z,17.01
2022-10-22T16:36:31.252Z,16.89
2022-10-22T16:38:59.174Z,16.90
2022-10-22T16:41:34.912Z,16.92
2022-10-22T16:44:04.463Z,16.93
2022-10-22T16:46:33.473Z,16.99
2022-10-22T16:49:01.567Z,16.95
2022-10-22T16:51:29.887Z,17.00
2022-10-22T16:53:58.561Z,16.82
2022-10-22T16:56:28.187Z,16.68
2022-10-22T16:58:58.477Z,16.63
2022-10-22T17:01:29.256Z,16.65
2022-10-22T17:03:57.565Z,16.61
2022-10-22T17:06:26.046Z,16.55
2022-10-22T17:08:54.328Z,16.52
2022-10-22T17:11:23.764Z,16.33
2022-10-22T17:13:54.770Z,16.50
2022-10-22T17:16:24.598Z,16.46
2022-10-22T17:18:53.805Z,16.40
2022-10-22T17:21:22.468Z,16.30
2022-10-22T17:23:54.691Z,16.31
2022-10-22T17:26:23.764Z,16.27
2022-10-22T17:28:53.111Z,16.22
2022-10-22T17:31:23.003Z,16.21
2022-10-22T17:33:52.952Z,16.16
2022-10-22T17:36:23.022Z,16.14
2022-10-22T17:38:52.688Z,16.01
2022-10-22T17:41:22.433Z,15.95
2022-10-22T17:43:50.763Z,15.85
2022-10-22T17:46:21.740Z,15.91
2022-10-22T17:48:53.619Z,15.82
2022-10-22T17:51:22.531Z,15.83
2022-10-22T17:53:51.305Z,15.80
2022-10-22T17:56:21.523Z,15.72
2022-10-22T17:58:49.876Z,15.67
2022-10-22T18:01:21.315Z,15.52
2022-10-22T18:03:49.957Z,15.54
2022-10-22T18:06:17.902Z,15.48
2022-10-22T18:08:45.961Z,15.33
2022-10-22T18:11:17.177Z,15.33
2022-10-22T18:13:45.025Z,15.13
2022-10-22T18:16:13.613Z,14.75
2022-10-22T18:18:42.785Z,14.57
2022-10-22T18:21:10.613Z,14.50
2022-10-22T18:23:38.466Z,14.58
2022-10-22T18:26:06.786Z,14.64
2022-10-22T18:28:34.857Z,14.37
2022-10-22T18:31:07.091Z,14.73
2022-10-22T18:33:35.831Z,14.69
2022-10-22T18:36:07.766Z,14.65
2022-10-22T18:38:35.715Z,14.62
2022-10-22T18:41:03.645Z,14.59
2022-10-22T18:43:31.474Z,14.58
2022-10-22T18:45:59.324Z,14.55
2022-10-22T18:48:27.170Z,14.56
2022-10-22T18:51:01.129Z,14.44
2022-10-22T18:53:30.511Z,14.59
2022-10-22T18:55:58.552Z,14.54
2022-10-22T18:58:26.401Z,14.53
2022-10-22T19:00:54.293Z,14.54
2022-10-22T19:03:22.368Z,14.52
2022-10-22T19:05:51.852Z,14.36
2022-10-22T19:08:19.756Z,14.28
2022-10-22T19:10:50.126Z,14.21
2022-10-22T19:13:21.132Z,14.11
2022-10-22T19:15:49.184Z,14.05
2022-10-22T19:18:17.037Z,14.09
2022-10-22T19:20:48.270Z,14.06
2022-10-22T19:23:19.963Z,14.00
2022-10-22T19:25:50.055Z,14.02
2022-10-22T19:28:17.934Z,14.00
2022-10-22T19:30:47.654Z,13.95
2022-10-22T19:33:16.133Z,14.02
2022-10-22T19:35:44.200Z,13.99
2022-10-22T19:38:12.037Z,13.91
2022-10-22T19:40:42.254Z,13.76
2022-10-22T19:43:12.310Z,13.31
2022-10-22T19:45:41.871Z,13.77
2022-10-22T19:48:09.721Z,13.77
2022-10-22T19:50:37.633Z,13.69
2022-10-22T19:53:05.831Z,13.35
2022-10-22T19:55:34.132Z,13.41
2022-10-22T19:58:01.972Z,13.58
2022-10-22T20:00:32.158Z,13.62
2022-10-22T20:03:00.085Z,13.62
2022-10-22T20:05:27.909Z,13.44
2022-10-22T20:07:55.764Z,13.37
2022-10-22T20:10:24.194Z,13.41
2022-10-22T20:12:52.976Z,13.33
2022-10-22T20:15:21.562Z,13.29
2022-10-22T20:17:50.757Z,13.20
2022-10-22T20:20:20.105Z,13.09
2022-10-22T20:22:49.851Z,12.95
2022-10-22T20:25:17.848Z,12.90
2022-10-22T20:27:45.672Z,12.88
2022-10-22T20:30:18.162Z,12.95
2022-10-22T20:32:46.040Z,12.98
2022-10-22T20:35:16.255Z,12.86
2022-10-22T20:37:44.123Z,12.74
2022-10-22T20:40:12.507Z,12.79
2022-10-22T20:42:40.528Z,12.83
2022-10-22T20:45:09.857Z,12.74
2022-10-22T20:47:50.919Z,12.33
2022-10-22T20:50:24.190Z,12.64
2022-10-22T20:52:52.052Z,12.55
2022-10-22T20:55:19.975Z,12.46
2022-10-22T20:57:48.058Z,12.47
2022-10-22T21:00:16.361Z,12.51
2022-10-22T21:02:44.280Z,12.14
2022-10-22T21:05:12.131Z,12.31
2022-10-22T21:07:41.590Z,12.30
2022-10-22T21:10:09.882Z,12.36
2022-10-22T21:12:41.815Z,12.39
2022-10-22T21:15:12.663Z,12.42
2022-10-22T21:17:40.794Z,12.46
2022-10-22T21:22:43.631Z,12.60
2022-10-22T21:25:11.780Z,12.53
2022-10-22T21:27:39.652Z,12.50
2022-10-22T21:30:08.527Z,12.42
2022-10-22T21:32:36.386Z,12.33
2022-10-22T21:35:04.315Z,12.39
2022-10-22T21:37:35.066Z,12.38
2022-10-22T21:40:05.189Z,11.67
2022-10-22T21:42:33.029Z,11.85
2022-10-22T21:45:00.961Z,11.85
2022-10-22T21:47:28.884Z,11.82
2022-10-22T21:49:56.749Z,11.82
2022-10-22T21:52:24.669Z,11.62
2022-10-22T21:54:52.524Z,11.50
2022-10-22T21:57:21.719Z,11.63
2022-10-22T21:59:49.556Z,11.76
2022-10-22T22:02:17.435Z,11.81
2022-10-22T22:04:45.448Z,11.91
2022-10-22T22:07:13.284Z,12.01
2022-10-22T22:09:41.277Z,12.01
2022-10-22T22:12:09.455Z,11.96
2022-10-22T22:14:38.669Z,11.95
2022-10-22T22:17:06.527Z,11.08
2022-10-22T22:19:34.401Z,12.02
2022-10-22T22:22:02.465Z,12.03
2022-10-22T22:24:30.424Z,12.01
2022-10-22T22:26:58.280Z,12.00
2022-10-22T22:29:26.154Z,12.20
2022-10-22T22:31:55.556Z,12.28
2022-10-22T22:34:23.386Z,12.29
2022-10-22T22:36:51.308Z,12.27
2022-10-22T22:39:21.705Z,12.31
2022-10-22T22:41:49.584Z,12.23
2022-10-22T22:44:17.795Z,11.88
2022-10-22T22:46:45.758Z,12.06
2022-10-22T22:49:15.161Z,11.90
2022-10-22T22:51:43.966Z,11.78
2022-10-22T22:54:12.428Z,11.74
2022-10-22T22:56:40.978Z,11.69
2022-10-22T22:59:08.873Z,11.65
2022-10-22T23:01:38.369Z,11.61
2022-10-22T23:04:08.472Z,11.43
2022-10-22T23:06:38.526Z,10.83
2022-10-22T23:09:07.783Z,11.11
2022-10-22T23:11:36.190Z,11.17
2022-10-22T23:14:05.949Z,11.14
2022-10-22T23:16:36.666Z,11.09
2022-10-22T23:19:05.698Z,11.17
2022-10-22T23:21:35.908Z,11.16
2022-10-22T23:24:08.794Z,11.24
2022-10-22T23:26:39.544Z,11.25
2022-10-22T23:29:09.405Z,11.29
2022-10-22T23:31:37.256Z,11.32
2022-10-22T23:34:05.176Z,11.21
2022-10-22T23:36:34.409Z,11.09
2022-10-22T23:39:05.793Z,11.13
2022-10-22T23:41:33.822Z,11.08
2022-10-22T23:44:01.988Z,11.13
2022-10-22T23:46:29.852Z,11.09
2022-10-22T23:48:57.696Z,11.01
2022-10-22T23:51:25.676Z,11.13
2022-10-22T23:53:57.839Z,11.18
2022-10-22T23:56:27.601Z,10.69
2022-10-22T23:58:56.570Z,10.55
